createdAt,value
2018-04-24T00:01:50.996Z,72.10
2018-04-24T00:04:19.264Z,72.10
2018-04-24T00:06:48.305Z,71.00
2018-04-24T00:09:16.528Z,71.00
2018-04-24T00:11:45.697Z,70.20
2018-04-24T00:14:13.938Z,70.10
2018-04-24T00:16:42.212Z,70.00
2018-04-24T00:19:11.269Z,70.60
2018-04-24T00:21:39.544Z,70.60
2018-04-24T00:24:07.805Z,70.40
2018-04-24T00:26:36.061Z,70.00
2018-04-24T00:29:04.331Z,70.20
2018-04-24T00:31:33.359Z,72.10
2018-04-24T00:34:01.618Z,72.10
2018-04-24T00:36:30.641Z,70.80
2018-04-24T00:38:58.870Z,70.80
2018-04-24T00:41:28.531Z,70.80
2018-04-24T00:43:56.764Z,70.80
2018-04-24T00:46:25.017Z,70.00
2018-04-24T00:48:53.892Z,69.80
2018-04-24T00:51:22.123Z,69.00
2018-04-24T00:53:50.380Z,68.80
2018-04-24T00:56:18.636Z,69.30
2018-04-24T00:58:46.864Z,68.70
2018-04-24T01:01:15.560Z,69.00
2018-04-24T01:03:43.816Z,69.40
2018-04-24T01:06:12.059Z,70.00
2018-04-24T01:08:40.326Z,70.00
2018-04-24T01:11:08.565Z,70.30
2018-04-24T01:13:36.851Z,70.00
2018-04-24T01:16:05.734Z,70.00
2018-04-24T01:18:34.063Z,70.40
2018-04-24T01:21:03.063Z,71.40
2018-04-24T01:23:32.132Z,71.40
2018-04-24T01:26:00.365Z,71.40
2018-04-24T01:28:28.609Z,71.50
2018-04-24T01:30:57.608Z,70.40
2018-04-24T01:33:26.622Z,70.90
2018-04-24T01:35:56.312Z,71.00
2018-04-24T01:38:24.954Z,71.00
2018-04-24T01:40:53.180Z,71.20
2018-04-24T01:43:21.432Z,70.70
2018-04-24T01:45:49.658Z,71.50
2018-04-24T01:48:18.703Z,69.80
2018-04-24T01:50:46.921Z,69.80
2018-04-24T01:53:15.172Z,71.30
2018-04-24T01:55:43.419Z,70.10
2018-04-24T01:58:11.681Z,70.10
2018-04-24T02:00:40.706Z,69.80
2018-04-24T02:03:08.944Z,69.80
2018-04-24T02:05:37.908Z,70.00
2018-04-24T02:08:06.161Z,70.90
2018-04-24T02:10:34.397Z,70.10
2018-04-24T02:13:02.968Z,69.90
2018-04-24T02:15:31.212Z,69.10
2018-04-24T02:17:59.460Z,69.60
2018-04-24T02:20:28.454Z,70.50
2018-04-24T02:22:56.721Z,70.50
2018-04-24T02:25:24.997Z,70.80
2018-04-24T02:27:53.245Z,70.50
2018-04-24T02:30:21.569Z,70.50
2018-04-24T02:32:50.173Z,70.80
2018-04-24T02:35:18.399Z,71.00
2018-04-24T02:37:46.916Z,71.10
2018-04-24T02:40:15.188Z,71.10
2018-04-24T02:42:43.437Z,71.10
2018-04-24T02:45:11.655Z,71.20
2018-04-24T02:47:39.893Z,71.40
2018-04-24T02:50:08.169Z,71.50
2018-04-24T02:52:36.400Z,71.50
2018-04-24T02:55:04.671Z,71.20
2018-04-24T02:57:33.672Z,72.00
2018-04-24T03:00:01.914Z,71.40
2018-04-24T03:02:30.172Z,71.60
2018-04-24T03:04:59.191Z,71.70
2018-04-24T03:07:27.424Z,71.70
2018-04-24T03:09:55.671Z,71.40
2018-04-24T03:12:23.916Z,71.90
2018-04-24T03:14:52.935Z,72.40
2018-04-24T03:17:21.161Z,72.40
2018-04-24T03:19:49.418Z,72.50
2018-04-24T03:22:17.670Z,72.40
2018-04-24T03:24:46.668Z,72.70
2018-04-24T03:27:14.896Z,72.60
2018-04-24T03:29:43.175Z,73.30
2018-04-24T03:32:11.412Z,73.30
2018-04-24T03:34:39.656Z,73.00
2018-04-24T03:37:07.966Z,72.80
2018-04-24T03:39:36.984Z,73.30
2018-04-24T03:42:06.038Z,73.30
2018-04-24T03:44:35.005Z,73.20
2018-04-24T03:47:03.835Z,72.80
2018-04-24T03:49:32.081Z,73.10
2018-04-24T03:52:00.325Z,73.20
2018-04-24T03:54:28.576Z,74.90
2018-04-24T03:56:56.809Z,73.50
2018-04-24T03:59:25.957Z,73.40
2018-04-24T04:01:54.071Z,72.90
2018-04-24T04:04:22.317Z,72.90
2018-04-24T04:06:51.333Z,72.90
2018-04-24T04:09:20.387Z,72.70
2018-04-24T04:11:48.610Z,72.70
2018-04-24T04:14:17.636Z,73.00
2018-04-24T04:16:45.867Z,73.00
2018-04-24T04:19:26.704Z,73.10
2018-04-24T04:22:06.744Z,73.30
2018-04-24T04:24:36.007Z,73.30
2018-04-24T04:27:05.009Z,72.80
2018-04-24T04:29:35.009Z,72.70
2018-04-24T04:32:03.233Z,72.30
2018-04-24T04:34:31.496Z,72.20
2018-04-24T04:37:00.472Z,71.70
2018-04-24T04:39:28.721Z,71.70
2018-04-24T04:41:56.988Z,71.50
2018-04-24T04:44:25.840Z,71.50
2018-04-24T04:46:55.700Z,71.50
2018-04-24T04:49:23.940Z,71.50
2018-04-24T04:51:53.583Z,72.10
2018-04-24T04:54:21.827Z,72.00
2018-04-24T04:56:50.108Z,71.70
2018-04-24T04:59:18.337Z,71.80
2018-04-24T05:01:46.629Z,72.00
2018-04-24T05:04:14.876Z,72.00
2018-04-24T05:06:43.128Z,72.10
2018-04-24T05:09:11.371Z,72.40
2018-04-24T05:11:40.332Z,72.70
2018-04-24T05:14:09.104Z,72.50
2018-04-24T05:16:38.128Z,71.60
2018-04-24T05:19:06.356Z,71.40
2018-04-24T05:21:34.637Z,71.80
2018-04-24T05:24:03.844Z,72.20
2018-04-24T05:26:32.170Z,72.10
2018-04-24T05:29:00.334Z,72.00
2018-04-24T05:31:29.384Z,72.10
2018-04-24T05:33:57.708Z,72.20
2018-04-24T05:36:25.961Z,71.50
2018-04-24T05:38:54.212Z,71.50
2018-04-24T05:41:22.493Z,71.50
2018-04-24T05:43:50.716Z,71.30
2018-04-24T05:46:18.980Z,71.10
2018-04-24T05:48:47.226Z,71.10
2018-04-24T05:51:15.795Z,70.60
2018-04-24T05:53:44.009Z,70.80
2018-04-24T05:56:12.774Z,71.20
2018-04-24T05:58:40.980Z,71.00
2018-04-24T06:01:09.227Z,70.90
2018-04-24T06:03:38.244Z,70.80
2018-04-24T06:06:07.453Z,70.80
2018-04-24T06:08:35.737Z,70.70
2018-04-24T06:11:05.197Z,70.40
2018-04-24T06:13:33.441Z,70.40
2018-04-24T06:16:01.735Z,70.00
2018-04-24T06:18:29.961Z,70.10
2018-04-24T06:20:58.977Z,70.20
2018-04-24T06:23:27.221Z,70.10
2018-04-24T06:25:55.466Z,70.60
2018-04-24T06:28:23.709Z,71.00
2018-04-24T06:30:52.725Z,69.90
2018-04-24T06:33:21.019Z,69.90
2018-04-24T06:35:49.320Z,70.70
2018-04-24T06:38:18.252Z,70.50
2018-04-24T06:40:47.276Z,70.80
2018-04-24T06:43:15.540Z,70.70
2018-04-24T06:45:45.536Z,70.00
2018-04-24T06:48:14.594Z,70.00
2018-04-24T06:50:42.832Z,69.60
2018-04-24T06:53:11.855Z,69.50
2018-04-24T06:55:40.103Z,69.50
2018-04-24T06:58:08.376Z,69.90
2018-04-24T07:00:37.350Z,69.30
2018-04-24T07:03:06.178Z,69.10
2018-04-24T07:05:34.402Z,68.50
2018-04-24T07:08:02.735Z,68.00
2018-04-24T07:10:30.951Z,67.80
2018-04-24T07:12:59.211Z,68.40
2018-04-24T07:15:28.225Z,67.60
2018-04-24T07:17:56.488Z,67.60
2018-04-24T07:20:24.701Z,67.40
2018-04-24T07:22:52.976Z,67.50
2018-04-24T07:25:21.226Z,66.40
2018-04-24T07:27:49.722Z,66.90
2018-04-24T07:30:17.946Z,67.20
2018-04-24T07:32:46.218Z,67.70
2018-04-24T07:35:14.456Z,67.50
2018-04-24T07:37:43.931Z,68.00
2018-04-24T07:40:12.179Z,68.00
2018-04-24T07:42:40.440Z,68.10
2018-04-24T07:45:09.466Z,69.00
2018-04-24T07:47:37.777Z,68.90
2018-04-24T07:50:06.271Z,69.00
2018-04-24T07:52:34.522Z,69.30
2018-04-24T07:55:02.762Z,69.00
2018-04-24T07:57:31.770Z,69.40
2018-04-24T08:00:00.813Z,69.80
2018-04-24T08:02:29.154Z,69.70
2018-04-24T08:04:58.183Z,70.40
2018-04-24T08:07:26.411Z,70.40
2018-04-24T08:09:54.850Z,69.70
2018-04-24T08:12:23.321Z,69.50
2018-04-24T08:14:51.593Z,69.80
2018-04-24T08:17:19.848Z,69.60
2018-04-24T08:19:48.099Z,68.80
2018-04-24T08:22:16.335Z,68.50
2018-04-24T08:24:44.606Z,68.80
2018-04-24T08:27:13.601Z,68.20
2018-04-24T08:29:42.674Z,68.00
2018-04-24T08:32:10.927Z,68.00
2018-04-24T08:34:39.166Z,68.70
2018-04-24T08:37:08.276Z,68.10
2018-04-24T08:39:36.673Z,68.00
2018-04-24T08:42:05.669Z,66.90
2018-04-24T08:44:33.922Z,66.50
2018-04-24T08:47:02.940Z,65.60
2018-04-24T08:49:31.194Z,65.60
2018-04-24T08:51:59.544Z,65.80
2018-04-24T08:54:27.789Z,67.10
2018-04-24T08:56:56.070Z,67.50
2018-04-24T08:59:24.889Z,67.20
2018-04-24T09:01:53.140Z,68.20
2018-04-24T09:04:22.667Z,68.50
2018-04-24T09:06:51.035Z,69.20
2018-04-24T09:09:19.295Z,68.60
2018-04-24T09:11:48.309Z,69.00
2018-04-24T09:14:17.312Z,69.20
2018-04-24T09:16:45.610Z,69.20
2018-04-24T09:19:14.793Z,69.30
2018-04-24T09:21:44.156Z,69.30
2018-04-24T09:24:12.387Z,69.50
2018-04-24T09:26:40.666Z,70.20
2018-04-24T09:29:08.920Z,70.00
2018-04-24T09:31:43.957Z,71.10
2018-04-24T09:34:12.246Z,71.00
2018-04-24T09:36:41.288Z,72.30
2018-04-24T09:39:09.515Z,72.30
2018-04-24T09:41:38.536Z,72.20
2018-04-24T09:44:06.795Z,72.20
2018-04-24T09:46:35.820Z,73.10
2018-04-24T09:49:04.048Z,73.10
2018-04-24T09:51:32.308Z,73.60
2018-04-24T09:54:00.580Z,73.50
2018-04-24T09:56:29.547Z,73.10
2018-04-24T09:58:58.542Z,73.30
2018-04-24T10:01:27.578Z,73.50
2018-04-24T10:03:56.723Z,73.50
2018-04-24T10:06:24.988Z,74.10
2018-04-24T10:08:53.222Z,74.20
2018-04-24T10:11:21.511Z,75.30
2018-04-24T10:13:49.875Z,75.30
2018-04-24T10:16:18.079Z,75.60
2018-04-24T10:21:15.469Z,75.10
2018-04-24T10:23:43.695Z,75.10
2018-04-24T10:26:11.988Z,74.90
2018-04-24T10:28:41.495Z,75.10
2018-04-24T10:31:10.524Z,75.50
2018-04-24T10:33:38.769Z,75.50
2018-04-24T10:36:08.398Z,75.10
2018-04-24T10:38:37.436Z,75.90
2018-04-24T10:41:05.689Z,75.90
2018-04-24T10:43:33.995Z,76.20
2018-04-24T10:46:02.216Z,76.80
2018-04-24T10:48:30.491Z,76.50
2018-04-24T10:50:58.736Z,76.20
2018-04-24T10:53:27.007Z,75.60
2018-04-24T10:55:55.287Z,76.30
2018-04-24T10:58:24.367Z,75.90
2018-04-24T11:00:53.408Z,75.90
2018-04-24T11:03:22.768Z,76.30
2018-04-24T11:05:51.782Z,76.70
2018-04-24T11:08:20.056Z,76.70
2018-04-24T11:10:48.320Z,76.80
2018-04-24T11:13:17.358Z,76.50
2018-04-24T11:15:45.649Z,76.50
2018-04-24T11:18:14.892Z,77.00
2018-04-24T11:20:43.151Z,76.60
2018-04-24T11:23:11.441Z,77.00
2018-04-24T11:25:40.227Z,77.00
2018-04-24T11:28:08.742Z,76.90
2018-04-24T11:30:37.756Z,76.50
2018-04-24T11:33:06.765Z,76.60
2018-04-24T11:35:35.038Z,76.60
2018-04-24T11:38:04.128Z,77.10
2018-04-24T11:40:32.363Z,77.70
2018-04-24T11:43:01.481Z,77.10
2018-04-24T11:45:29.713Z,77.20
2018-04-24T11:47:57.962Z,77.30
2018-04-24T11:50:26.730Z,77.20
2018-04-24T11:52:55.021Z,77.00
2018-04-24T11:55:23.254Z,76.50
2018-04-24T11:57:51.600Z,76.20
2018-04-24T12:00:19.844Z,76.40
2018-04-24T12:02:48.222Z,75.80
2018-04-24T12:05:16.356Z,76.50
2018-04-24T12:07:45.377Z,76.10
2018-04-24T12:10:13.655Z,76.00
2018-04-24T12:12:41.928Z,76.30
2018-04-24T12:15:11.512Z,76.60
2018-04-24T12:17:39.795Z,76.60
2018-04-24T12:20:08.036Z,76.10
2018-04-24T12:22:36.312Z,75.60
2018-04-24T12:25:04.578Z,74.90
2018-04-24T12:27:33.466Z,75.00
2018-04-24T12:30:02.734Z,74.40
2018-04-24T12:32:30.971Z,74.40
2018-04-24T12:34:59.208Z,74.70
2018-04-24T12:37:28.247Z,74.30
2018-04-24T12:39:57.321Z,74.20
2018-04-24T12:42:25.568Z,74.20
2018-04-24T12:44:54.588Z,73.90
2018-04-24T12:47:23.621Z,73.80
2018-04-24T12:49:51.892Z,73.70
2018-04-24T12:52:20.132Z,72.70
2018-04-24T12:54:48.416Z,72.70
2018-04-24T12:57:16.689Z,73.40
2018-04-24T12:59:44.941Z,72.90
2018-04-24T13:02:13.192Z,72.70
2018-04-24T13:04:41.489Z,72.80
2018-04-24T13:07:09.736Z,73.60
2018-04-24T13:09:39.019Z,72.70
2018-04-24T13:12:07.265Z,72.60
2018-04-24T13:14:35.523Z,72.50
2018-04-24T13:17:03.776Z,72.60
2018-04-24T13:19:32.030Z,71.30
2018-04-24T13:22:00.332Z,70.80
2018-04-24T13:24:29.203Z,70.00
2018-04-24T13:26:57.416Z,69.90
2018-04-24T13:29:26.446Z,70.00
2018-04-24T13:31:54.681Z,69.90
2018-04-24T13:34:22.968Z,70.10
2018-04-24T13:36:51.227Z,68.90
2018-04-24T13:39:20.284Z,68.90
2018-04-24T13:41:48.584Z,68.90
2018-04-24T13:44:16.824Z,68.50
2018-04-24T13:46:46.467Z,66.60
2018-04-24T13:49:14.699Z,66.60
2018-04-24T13:51:43.812Z,66.50
2018-04-24T13:54:12.850Z,64.80
2018-04-24T13:56:41.083Z,64.70
2018-04-24T13:59:09.347Z,65.20
2018-04-24T14:01:37.584Z,63.80
2018-04-24T14:04:05.863Z,62.70
2018-04-24T14:06:34.129Z,62.30
2018-04-24T14:09:03.169Z,61.90
2018-04-24T14:11:31.437Z,61.90
2018-04-24T14:13:59.705Z,60.50
2018-04-24T14:16:27.961Z,60.50
2018-04-24T14:18:56.212Z,61.80
2018-04-24T14:21:24.461Z,61.70
2018-04-24T14:23:53.456Z,60.00
2018-04-24T14:26:21.696Z,59.90
2018-04-24T14:28:49.974Z,60.40
2018-04-24T14:31:18.258Z,61.20
2018-04-24T14:33:47.151Z,60.20
2018-04-24T14:36:15.403Z,60.70
2018-04-24T14:38:43.688Z,60.80
2018-04-24T14:41:11.952Z,60.00
2018-04-24T14:43:40.208Z,61.40
2018-04-24T14:46:08.475Z,60.50
2018-04-24T14:48:37.474Z,59.40
2018-04-24T14:51:06.518Z,59.20
2018-04-24T14:53:35.708Z,59.10
2018-04-24T14:56:03.975Z,59.20
2018-04-24T14:58:32.240Z,59.30
2018-04-24T15:01:01.256Z,59.00
2018-04-24T15:03:29.488Z,59.00
2018-04-24T15:05:57.782Z,59.20
2018-04-24T15:08:26.014Z,59.50
2018-04-24T15:10:54.289Z,60.00
2018-04-24T15:13:22.543Z,60.00
2018-04-24T15:15:51.598Z,59.40
2018-04-24T15:18:19.865Z,59.40
2018-04-24T15:20:48.132Z,59.10
2018-04-24T15:23:16.416Z,59.40
2018-04-24T15:25:44.688Z,59.50
2018-04-24T15:28:13.021Z,60.20
2018-04-24T15:30:41.964Z,59.30
2018-04-24T15:33:10.843Z,59.30
2018-04-24T15:35:39.931Z,58.70
2018-04-24T15:38:08.971Z,59.10
2018-04-24T15:40:37.263Z,58.50
2018-04-24T15:43:05.544Z,57.80
2018-04-24T15:45:33.826Z,57.80
2018-04-24T15:48:02.140Z,58.00
2018-04-24T15:50:30.355Z,58.50
2018-04-24T15:52:58.612Z,57.70
2018-04-24T15:55:27.665Z,57.80
2018-04-24T15:57:55.936Z,57.80
2018-04-24T16:00:24.302Z,57.60
2018-04-24T16:02:52.626Z,58.00
2018-04-24T16:05:22.068Z,58.60
2018-04-24T16:07:50.302Z,58.50
2018-04-24T16:10:18.617Z,57.70
2018-04-24T16:12:46.876Z,58.90
2018-04-24T16:15:15.137Z,58.90
2018-04-24T16:17:43.410Z,58.60
2018-04-24T16:20:11.691Z,57.70
2018-04-24T16:22:39.971Z,57.90
2018-04-24T16:25:08.217Z,58.00
2018-04-24T16:27:36.480Z,57.60
2018-04-24T16:30:04.809Z,57.80
2018-04-24T16:32:32.980Z,58.80
2018-04-24T16:35:02.869Z,58.60
2018-04-24T16:37:31.149Z,58.60
2018-04-24T16:39:59.404Z,58.80
2018-04-24T16:42:27.680Z,58.60
2018-04-24T16:44:55.983Z,58.70
2018-04-24T16:47:24.213Z,59.30
2018-04-24T16:49:52.459Z,60.40
2018-04-24T16:52:20.722Z,59.30
2018-04-24T16:54:49.002Z,59.60
2018-04-24T16:57:17.260Z,59.20
2018-04-24T16:59:45.516Z,58.90
2018-04-24T17:02:13.782Z,59.30
2018-04-24T17:04:43.418Z,59.30
2018-04-24T17:07:11.720Z,59.30
2018-04-24T17:09:39.986Z,59.60
2018-04-24T17:12:08.505Z,59.20
2018-04-24T17:14:36.776Z,59.50
2018-04-24T17:17:05.119Z,59.70
2018-04-24T17:19:33.376Z,60.20
2018-04-24T17:22:01.645Z,60.80
2018-04-24T17:24:29.900Z,60.70
2018-04-24T17:26:58.168Z,60.80
2018-04-24T17:29:26.422Z,60.10
2018-04-24T17:31:55.485Z,60.30
2018-04-24T17:34:23.742Z,60.20
2018-04-24T17:36:52.007Z,60.80
2018-04-24T17:39:20.979Z,60.70
2018-04-24T17:41:50.016Z,60.70
2018-04-24T17:44:18.287Z,60.70
2018-04-24T17:46:47.288Z,60.50
2018-04-24T17:49:15.537Z,61.20
2018-04-24T17:51:43.772Z,61.20
2018-04-24T17:54:12.058Z,61.20
2018-04-24T17:56:40.742Z,61.20
2018-04-24T17:59:09.012Z,62.10
2018-04-24T18:01:37.268Z,61.80
2018-04-24T18:04:05.545Z,62.40
2018-04-24T18:06:35.495Z,62.60
2018-04-24T18:09:03.776Z,62.60
2018-04-24T18:11:32.127Z,62.50
2018-04-24T18:14:00.922Z,62.50
2018-04-24T18:16:29.948Z,62.80
2018-04-24T18:18:58.211Z,62.70
2018-04-24T18:21:26.948Z,63.10
2018-04-24T18:23:56.713Z,63.40
2018-04-24T18:26:25.739Z,63.40
2018-04-24T18:28:54.028Z,63.40
2018-04-24T18:31:22.298Z,63.20
2018-04-24T18:33:50.600Z,63.20
2018-04-24T18:36:18.856Z,64.00
2018-04-24T18:38:47.117Z,63.70
2018-04-24T18:41:16.153Z,64.50
2018-04-24T18:43:44.419Z,64.50
2018-04-24T18:46:12.673Z,65.00
2018-04-24T18:48:40.948Z,65.50
2018-04-24T18:51:09.993Z,65.10
2018-04-24T18:53:39.045Z,65.10
2018-04-24T18:56:08.105Z,65.60
2018-04-24T18:58:37.980Z,65.80
2018-04-24T19:01:06.243Z,66.20
2018-04-24T19:03:35.278Z,65.40
2018-04-24T19:06:03.540Z,65.40
2018-04-24T19:08:31.953Z,65.50
2018-04-24T19:11:05.729Z,66.50
2018-04-24T19:13:34.009Z,67.00
2018-04-24T19:16:02.257Z,68.10
2018-04-24T19:18:36.324Z,67.00
2018-04-24T19:21:04.651Z,68.20
2018-04-24T19:23:32.938Z,68.20
2018-04-24T19:26:01.317Z,67.50
2018-04-24T19:28:29.597Z,67.30
2018-04-24T19:30:57.879Z,68.20
2018-04-24T19:33:26.191Z,67.80
2018-04-24T19:35:55.214Z,68.60
2018-04-24T19:38:23.508Z,68.60
2018-04-24T19:40:57.504Z,68.30
2018-04-24T19:43:25.776Z,69.30
2018-04-24T19:45:54.034Z,69.00
2018-04-24T19:48:28.813Z,69.50
2018-04-24T19:50:57.089Z,69.50
2018-04-24T19:53:25.360Z,69.20
2018-04-24T19:55:53.613Z,69.30
2018-04-24T19:58:22.680Z,71.00
2018-04-24T20:00:50.955Z,71.00
2018-04-24T20:03:19.248Z,70.60
2018-04-24T20:05:47.600Z,70.80
2018-04-24T20:08:15.897Z,71.00
2018-04-24T20:10:44.144Z,70.50
2018-04-24T20:13:13.143Z,70.30
2018-04-24T20:15:42.048Z,70.50
2018-04-24T20:18:10.454Z,70.90
2018-04-24T20:20:38.679Z,71.50
2018-04-24T20:23:07.713Z,72.20
2018-04-24T20:25:36.006Z,71.90
2018-04-24T20:28:05.058Z,72.70
2018-04-24T20:30:34.099Z,73.40
2018-04-24T20:33:02.824Z,73.20
2018-04-24T20:35:31.127Z,73.70
2018-04-24T20:38:00.192Z,73.90
2018-04-24T20:40:28.527Z,73.90
2018-04-24T20:42:56.827Z,73.70
2018-04-24T20:45:25.120Z,74.70
2018-04-24T20:47:54.055Z,74.50
2018-04-24T20:50:22.341Z,75.40
2018-04-24T20:52:50.574Z,76.70
2018-04-24T20:55:18.854Z,76.60
2018-04-24T20:57:47.116Z,76.50
2018-04-24T21:00:15.435Z,76.80
2018-04-24T21:02:43.708Z,76.80
2018-04-24T21:05:11.965Z,77.10
2018-04-24T21:07:40.230Z,76.90
2018-04-24T21:10:09.277Z,77.10
2018-04-24T21:12:37.539Z,77.10
2018-04-24T21:15:05.991Z,77.40
2018-04-24T21:17:34.257Z,77.40
2018-04-24T21:20:02.528Z,77.60
2018-04-24T21:22:31.751Z,77.50
2018-04-24T21:25:00.808Z,76.90
2018-04-24T21:27:29.083Z,76.80
2018-04-24T21:29:57.417Z,76.80
2018-04-24T21:32:25.673Z,76.60
2018-04-24T21:34:53.928Z,76.50
2018-04-24T21:37:22.185Z,76.50
2018-04-24T21:39:50.459Z,76.40
2018-04-24T21:42:18.691Z,76.30
2018-04-24T21:44:46.981Z,76.10
2018-04-24T21:47:15.244Z,75.80
2018-04-24T21:49:43.488Z,75.80
2018-04-24T21:52:11.770Z,75.90
2018-04-24T21:54:41.246Z,76.20
2018-04-24T21:57:09.507Z,76.20
2018-04-24T21:59:37.763Z,75.50
2018-04-24T22:02:06.021Z,76.40
2018-04-24T22:04:34.262Z,77.10
2018-04-24T22:07:02.552Z,76.10
2018-04-24T22:09:31.554Z,76.00
2018-04-24T22:12:00.575Z,75.80
2018-04-24T22:14:28.820Z,75.80
2018-04-24T22:16:57.102Z,76.40
2018-04-24T22:19:25.389Z,76.60
2018-04-24T22:21:53.651Z,76.40
2018-04-24T22:24:21.913Z,76.20
2018-04-24T22:26:50.952Z,75.20
2018-04-24T22:29:19.973Z,75.20
2018-04-24T22:31:48.243Z,75.10
2018-04-24T22:34:17.330Z,75.30
2018-04-24T22:36:45.596Z,75.30
2018-04-24T22:39:13.835Z,75.40
2018-04-24T22:41:42.110Z,75.50
2018-04-24T22:44:10.356Z,75.50
2018-04-24T22:46:39.383Z,75.50
2018-04-24T22:49:07.732Z,75.40
2018-04-24T22:51:36.001Z,75.60
2018-04-24T22:54:04.265Z,75.60
2018-04-24T22:56:32.516Z,75.70
2018-04-24T22:59:00.759Z,75.70
2018-04-24T23:01:29.023Z,75.60
2018-04-24T23:03:57.252Z,75.70
2018-04-24T23:06:25.537Z,76.40
2018-04-24T23:08:53.789Z,75.60
2018-04-24T23:11:34.001Z,75.50
2018-04-24T23:14:14.177Z,75.60
2018-04-24T23:16:54.869Z,75.50
2018-04-24T23:19:35.809Z,75.00
2018-04-24T23:22:03.593Z,75.00
2018-04-24T23:24:31.855Z,75.30
2018-04-24T23:27:00.180Z,75.00
2018-04-24T23:29:29.191Z,74.80
2018-04-24T23:31:57.936Z,74.70
2018-04-24T23:34:26.164Z,74.30
2018-04-24T23:36:54.448Z,74.00
2018-04-24T23:39:22.708Z,73.90
2018-04-24T23:41:51.738Z,73.90
2018-04-24T23:44:20.096Z,73.80
2018-04-24T23:46:49.102Z,73.50
2018-04-24T23:49:17.969Z,73.40
2018-04-24T23:51:46.196Z,73.50
2018-04-24T23:54:14.472Z,73.30
2018-04-24T23:56:42.700Z,73.60
2018-04-24T23:59:10.991Z,73.70
